Time;durP1;ratioP1;P1;durP2;ratioP2;P2;SDS_P1;SDS_P2;PMS_P1;PMS_P2;Temp;Humidity;BMP_temperature;BMP_pressure;BME280_temperature;BME280_humidity;BME280_pressure;Samples;Min_cycle;Max_cycle;Signal;HPM_P1;HPM_P2
2022/04/27 00:00:19;;;;;;;14.03;4.20;;;7.90;99.90;;;;;;5042086;28;20113;-34
2022/04/27 00:02:45;;;;;;;12.10;4.27;;;7.90;99.90;;;;;;5040128;28;20447;-34
2022/04/27 00:05:11;;;;;;;9.17;4.00;;;8.00;99.90;;;;;;5042248;28;20053;-34
2022/04/27 00:07:36;;;;;;;9.40;4.07;;;8.00;99.90;;;;;;5027325;28;20138;-35
2022/04/27 00:10:03;;;;;;;10.40;4.10;;;8.00;99.90;;;;;;5045125;28;20033;-34
2022/04/27 00:12:28;;;;;;;8.87;3.73;;;8.00;99.90;;;;;;5044524;28;20102;-34
2022/04/27 00:14:54;;;;;;;7.37;3.47;;;8.00;99.90;;;;;;5046557;28;20111;-35
2022/04/27 00:17:20;;;;;;;10.37;3.80;;;8.00;99.90;;;;;;5047516;28;20043;-34
2022/04/27 00:19:45;;;;;;;8.03;3.73;;;8.00;99.90;;;;;;5046301;28;20037;-34
2022/04/27 00:22:12;;;;;;;6.67;2.80;;;8.20;99.90;;;;;;5045123;28;20041;-35
2022/04/27 00:24:39;;;;;;;7.00;2.67;;;8.00;99.90;;;;;;5046218;28;20131;-34
2022/04/27 00:27:05;;;;;;;7.60;3.10;;;8.10;99.90;;;;;;5029471;28;20239;-35
2022/04/27 00:29:31;;;;;;;6.40;2.93;;;8.10;99.90;;;;;;5046174;28;20057;-34
2022/04/27 00:31:57;;;;;;;9.30;2.83;;;8.00;99.90;;;;;;5044830;28;20098;-35
2022/04/27 00:34:23;;;;;;;7.87;2.53;;;8.20;99.90;;;;;;5045252;28;20124;-34
2022/04/27 00:36:48;;;;;;;6.37;2.67;;;8.10;99.90;;;;;;5030433;28;20098;-35
2022/04/27 00:39:16;;;;;;;9.83;2.67;;;8.10;99.90;;;;;;5045826;28;20064;-34
2022/04/27 00:41:59;;;;;;;8.73;2.90;;;8.10;99.90;;;;;;5045478;28;20040;-34
2022/04/27 00:44:32;;;;;;;8.07;2.83;;;8.10;99.90;;;;;;5044046;28;20075;-34
2022/04/27 00:46:59;;;;;;;8.90;2.63;;;8.10;99.90;;;;;;5030688;28;20088;-34
2022/04/27 00:49:26;;;;;;;6.63;2.83;;;8.20;99.90;;;;;;5059850;28;20701;-34
2022/04/27 00:51:53;;;;;;;9.27;2.90;;;8.20;99.90;;;;;;5044903;28;20199;-34
2022/04/27 00:54:22;;;;;;;4.97;2.37;;;8.10;99.90;;;;;;5043999;28;20397;-34
2022/04/27 00:56:48;;;;;;;9.00;2.90;;;8.20;99.90;;;;;;5031796;28;20063;-34
2022/04/27 00:59:14;;;;;;;11.93;2.93;;;8.20;99.90;;;;;;5045589;28;20040;-35
2022/04/27 01:01:40;;;;;;;6.47;2.90;;;8.20;99.90;;;;;;5043274;28;20048;-35
2022/04/27 01:04:07;;;;;;;6.07;2.67;;;8.20;99.90;;;;;;5045429;28;20075;-35
2022/04/27 01:06:34;;;;;;;7.30;2.67;;;8.20;99.90;;;;;;5031234;28;20515;-35
2022/04/27 01:09:00;;;;;;;9.30;2.93;;;8.20;99.90;;;;;;5042943;28;20136;-34
2022/04/27 01:11:26;;;;;;;7.13;2.63;;;8.20;99.90;;;;;;5045752;28;20120;-34
2022/04/27 01:13:52;;;;;;;8.47;3.00;;;8.20;99.90;;;;;;5041884;28;20082;-34
2022/04/27 01:16:18;;;;;;;5.90;2.30;;;8.30;99.90;;;;;;5035647;28;20048;-35
2022/04/27 01:18:44;;;;;;;8.20;2.67;;;8.20;99.90;;;;;;5041501;28;20120;-34
2022/04/27 01:21:10;;;;;;;7.00;2.90;;;8.20;99.90;;;;;;5044240;28;20571;-34
2022/04/27 01:23:35;;;;;;;6.13;2.57;;;8.20;99.90;;;;;;5043998;28;20099;-34
2022/04/27 01:26:08;;;;;;;6.90;2.63;;;8.20;99.90;;;;;;5045787;28;20415;-35
2022/04/27 01:28:37;;;;;;;9.80;2.80;;;8.20;99.90;;;;;;5033753;28;20480;-34
2022/04/27 01:31:05;;;;;;;10.10;3.30;;;8.30;99.90;;;;;;5044051;28;20416;-34
2022/04/27 01:33:34;;;;;;;5.77;2.70;;;8.30;99.90;;;;;;5042645;28;20236;-34
2022/04/27 01:36:03;;;;;;;7.57;2.83;;;8.20;99.90;;;;;;5046024;28;20063;-34
2022/04/27 01:38:49;;;;;;;8.30;2.80;;;8.20;99.90;;;;;;5028739;28;20341;-34
2022/04/27 01:41:15;;;;;;;10.40;3.00;;;8.20;99.90;;;;;;5044359;28;20115;-34
2022/04/27 01:43:41;;;;;;;6.97;2.80;;;8.20;99.90;;;;;;5044622;28;20518;-34
2022/04/27 01:46:07;;;;;;;6.97;2.73;;;8.20;99.90;;;;;;5040817;28;20049;-36
2022/04/27 01:48:33;;;;;;;9.87;2.63;;;8.30;99.90;;;;;;5033791;28;20526;-34
2022/04/27 01:50:59;;;;;;;6.00;2.70;;;8.30;99.90;;;;;;5045625;28;20045;-34
2022/04/27 01:56:09;;;;;;;4.43;2.73;;;8.20;99.90;;;;;;5038212;28;20261;-35
2022/04/27 01:58:35;;;;;;;5.60;2.47;;;8.20;99.90;;;;;;5035568;28;20045;-35
2022/04/27 02:01:01;;;;;;;7.90;2.60;;;8.20;99.90;;;;;;5045491;28;20072;-34
2022/04/27 02:03:26;;;;;;;5.73;2.87;;;8.20;99.90;;;;;;5043219;28;20037;-34
2022/04/27 02:05:52;;;;;;;7.17;2.87;;;8.20;99.90;;;;;;5042882;28;20423;-34
2022/04/27 02:08:19;;;;;;;10.30;2.60;;;8.20;99.90;;;;;;5028184;28;20214;-34
2022/04/27 02:10:45;;;;;;;6.33;2.43;;;8.30;99.90;;;;;;5044154;28;20044;-34
2022/04/27 02:13:11;;;;;;;6.30;2.47;;;8.20;99.90;;;;;;5042348;28;20057;-34
2022/04/27 02:15:38;;;;;;;8.30;2.70;;;8.20;99.90;;;;;;5043336;28;20068;-34
2022/04/27 02:18:04;;;;;;;8.93;2.77;;;8.20;99.90;;;;;;5033670;28;20048;-34
2022/04/27 02:20:30;;;;;;;7.60;2.63;;;8.20;99.90;;;;;;5043923;28;20045;-34
2022/04/27 02:22:55;;;;;;;6.53;2.77;;;8.20;99.90;;;;;;5042170;28;20056;-34
2022/04/27 02:25:22;;;;;;;7.47;2.40;;;8.20;99.90;;;;;;5043602;28;20063;-34
2022/04/27 02:27:52;;;;;;;3.07;2.10;;;8.20;99.90;;;;;;5009378;28;20467;-34
2022/04/27 02:30:18;;;;;;;3.83;2.30;;;8.20;99.90;;;;;;5044388;28;20040;-34
2022/04/27 02:32:48;;;;;;;5.23;2.43;;;8.30;99.90;;;;;;5041170;28;20555;-34
2022/04/27 02:35:15;;;;;;;5.33;2.50;;;8.30;99.90;;;;;;5040898;28;20124;-34
2022/04/27 02:37:41;;;;;;;6.53;2.80;;;8.20;99.90;;;;;;5026981;28;20399;-34
2022/04/27 02:40:10;;;;;;;6.97;2.80;;;8.20;99.90;;;;;;5041955;28;20048;-34
2022/04/27 02:42:36;;;;;;;6.23;2.20;;;8.20;99.90;;;;;;5042413;28;20059;-35
2022/04/27 02:45:02;;;;;;;4.70;2.50;;;8.00;99.90;;;;;;5043591;28;20036;-35
2022/04/27 02:47:28;;;;;;;8.07;3.20;;;8.10;99.90;;;;;;5025652;28;20303;-35
2022/04/27 02:52:37;;;;;;;4.57;2.50;;;8.10;99.90;;;;;;5041493;28;20742;-35
2022/04/27 02:55:03;;;;;;;6.27;2.80;;;8.20;99.90;;;;;;5044593;28;20327;-34
2022/04/27 02:57:29;;;;;;;5.53;2.67;;;8.10;99.90;;;;;;5027602;28;20097;-35
2022/04/27 02:59:55;;;;;;;8.27;2.70;;;8.20;99.90;;;;;;5043819;28;20396;-34
2022/04/27 03:02:20;;;;;;;6.10;2.87;;;8.20;99.90;;;;;;5042300;28;20072;-34
2022/04/27 03:04:46;;;;;;;7.13;2.80;;;8.10;99.90;;;;;;5044631;28;20260;-34
2022/04/27 03:07:12;;;;;;;5.93;2.90;;;8.10;99.90;;;;;;5027128;28;20041;-34
2022/04/27 03:09:37;;;;;;;5.20;2.70;;;8.20;99.90;;;;;;5042734;28;20083;-35
2022/04/27 03:12:03;;;;;;;4.90;2.50;;;8.20;99.90;;;;;;5043074;28;20076;-36
2022/04/27 03:14:29;;;;;;;6.40;2.80;;;8.10;99.90;;;;;;5042754;28;20717;-34
2022/04/27 03:16:56;;;;;;;3.77;2.37;;;8.10;99.90;;;;;;5027958;28;20052;-35
2022/04/27 03:19:22;;;;;;;6.23;2.70;;;8.20;99.90;;;;;;5043339;28;20044;-34
2022/04/27 03:21:48;;;;;;;5.73;2.37;;;8.20;99.90;;;;;;5042218;28;20123;-34
2022/04/27 03:24:14;;;;;;;6.83;3.17;;;8.10;99.90;;;;;;5042161;28;20493;-34
2022/04/27 03:26:40;;;;;;;6.93;3.40;;;8.10;99.90;;;;;;5028615;28;20060;-34
2022/04/27 03:29:05;;;;;;;9.93;3.70;;;8.10;99.90;;;;;;5041116;28;20076;-34
2022/04/27 03:31:32;;;;;;;7.50;3.17;;;8.10;99.90;;;;;;5043820;28;20095;-34
2022/04/27 03:33:58;;;;;;;10.20;3.53;;;8.10;99.90;;;;;;5043940;28;20037;-34
2022/04/27 03:36:24;;;;;;;8.67;4.00;;;8.10;99.90;;;;;;5028040;28;20522;-34
2022/04/27 03:38:50;;;;;;;6.70;3.37;;;8.10;99.90;;;;;;5040103;28;20057;-34
2022/04/27 03:41:20;;;;;;;7.47;3.60;;;8.10;99.90;;;;;;5042962;28;20048;-34
2022/04/27 03:43:50;;;;;;;10.40;3.77;;;8.00;99.90;;;;;;5043805;28;20052;-34
2022/04/27 03:46:16;;;;;;;10.57;3.67;;;8.00;99.90;;;;;;5036090;28;20519;-35
2022/04/27 03:48:42;;;;;;;7.60;3.50;;;8.00;99.90;;;;;;5041480;28;20052;-34
2022/04/27 03:51:09;;;;;;;6.93;3.50;;;8.00;99.90;;;;;;5045453;28;20068;-34
2022/04/27 03:53:34;;;;;;;8.33;3.90;;;8.00;99.90;;;;;;5061882;28;20044;-34
2022/04/27 03:56:00;;;;;;;8.57;3.60;;;8.00;99.90;;;;;;5046608;28;20411;-34
2022/04/27 03:58:26;;;;;;;9.50;3.80;;;8.00;99.90;;;;;;5012638;28;20098;-34
2022/04/27 04:00:51;;;;;;;5.37;3.70;;;8.00;99.90;;;;;;5047119;28;20447;-35
2022/04/27 04:03:17;;;;;;;7.57;3.90;;;8.00;99.90;;;;;;5046499;28;20131;-34
2022/04/27 04:05:43;;;;;;;7.40;3.83;;;8.10;99.90;;;;;;5027765;28;20044;-34
2022/04/27 04:08:09;;;;;;;7.87;3.87;;;8.00;99.90;;;;;;5031384;28;20049;-34
2022/04/27 04:10:34;;;;;;;7.40;4.00;;;8.00;99.90;;;;;;5046744;28;20115;-34
2022/04/27 04:13:00;;;;;;;10.37;3.97;;;8.00;99.90;;;;;;5043830;28;20605;-34
2022/04/27 04:15:26;;;;;;;5.83;3.80;;;8.00;99.90;;;;;;5046743;28;20053;-35
2022/04/27 04:17:52;;;;;;;9.40;4.60;;;8.00;99.90;;;;;;5030186;28;20224;-34
2022/04/27 04:20:18;;;;;;;9.47;4.83;;;8.00;99.90;;;;;;5045234;28;20091;-34
2022/04/27 04:22:45;;;;;;;6.93;4.20;;;7.90;99.90;;;;;;5045086;28;20068;-34
2022/04/27 04:30:40;;;;;;;6.33;4.23;;;7.90;99.90;;;;;;5046546;28;20045;-35
2022/04/27 04:33:07;;;;;;;7.00;3.53;;;8.10;99.90;;;;;;5044706;28;20053;-34
2022/04/27 04:35:33;;;;;;;5.63;3.63;;;7.90;99.90;;;;;;5045245;28;20041;-34
2022/04/27 04:37:59;;;;;;;6.60;3.93;;;8.00;99.90;;;;;;5030979;28;20043;-34
2022/04/27 04:40:25;;;;;;;7.47;3.97;;;8.00;99.90;;;;;;5044072;28;20037;-34
2022/04/27 04:42:51;;;;;;;6.37;3.23;;;8.00;99.90;;;;;;5046339;28;20142;-34
2022/04/27 04:45:17;;;;;;;6.73;3.27;;;8.00;99.90;;;;;;5046457;28;20036;-34
2022/04/27 04:47:42;;;;;;;4.77;3.60;;;8.00;99.90;;;;;;5030206;28;20052;-34
2022/04/27 04:50:09;;;;;;;7.03;3.93;;;8.00;99.90;;;;;;5047043;28;20037;-34
2022/04/27 04:52:35;;;;;;;6.10;3.60;;;7.90;99.90;;;;;;5044280;28;20052;-34
2022/04/27 04:55:01;;;;;;;6.67;3.87;;;8.00;99.90;;;;;;5045832;28;20041;-34
2022/04/27 04:57:26;;;;;;;5.90;3.83;;;8.00;99.90;;;;;;5030631;28;20037;-35
2022/04/27 04:59:52;;;;;;;6.83;3.73;;;8.00;99.90;;;;;;5044755;28;20504;-34
2022/04/27 05:02:18;;;;;;;6.33;3.67;;;8.00;99.90;;;;;;5044844;28;20168;-35
2022/04/27 05:04:44;;;;;;;8.47;4.03;;;8.00;99.90;;;;;;5046781;28;20094;-35
2022/04/27 05:07:09;;;;;;;7.30;3.87;;;8.00;99.90;;;;;;5029221;28;20076;-34
2022/04/27 05:09:35;;;;;;;6.37;3.37;;;8.00;99.90;;;;;;5045710;28;20048;-34
2022/04/27 05:12:01;;;;;;;6.57;3.57;;;8.00;99.90;;;;;;5046190;28;20037;-35
2022/04/27 05:14:27;;;;;;;8.33;4.57;;;8.00;99.90;;;;;;5044335;28;20116;-34
2022/04/27 05:16:52;;;;;;;7.73;3.50;;;8.00;99.90;;;;;;5029531;28;20366;-35
2022/04/27 05:19:18;;;;;;;5.23;3.53;;;8.00;99.90;;;;;;5045731;28;20040;-35
2022/04/27 05:21:43;;;;;;;8.00;3.93;;;8.00;99.90;;;;;;5043260;28;20041;-34
2022/04/27 05:24:11;;;;;;;8.37;4.00;;;8.00;99.90;;;;;;5044037;28;20499;-35
2022/04/27 05:26:37;;;;;;;5.80;3.40;;;8.10;99.90;;;;;;5032476;28;20115;-34
2022/04/27 05:31:57;;;;;;;6.93;4.00;;;8.10;99.90;;;;;;5043904;28;20083;-34
2022/04/27 05:34:30;;;;;;;6.57;3.33;;;8.10;99.90;;;;;;5044400;28;20128;-34
2022/04/27 05:36:57;;;;;;;8.33;4.10;;;8.10;99.90;;;;;;5029703;28;20041;-34
2022/04/27 05:39:23;;;;;;;3.67;2.90;;;8.10;99.90;;;;;;5042424;28;20044;-35
2022/04/27 05:41:55;;;;;;;9.23;3.67;;;8.10;99.90;;;;;;5045395;28;20426;-34
2022/04/27 05:44:23;;;;;;;7.10;3.10;;;8.20;99.90;;;;;;5043035;28;20045;-34
2022/04/27 05:46:50;;;;;;;5.13;3.33;;;8.20;99.90;;;;;;5010969;28;20044;-34
2022/04/27 05:49:16;;;;;;;5.23;3.40;;;8.20;99.90;;;;;;5042401;28;20068;-35
2022/04/27 05:51:42;;;;;;;8.50;3.67;;;8.20;99.90;;;;;;5043907;28;20058;-34
2022/04/27 05:54:07;;;;;;;6.67;2.50;;;8.20;99.90;;;;;;5044453;28;20049;-34
2022/04/27 05:56:34;;;;;;;3.37;1.50;;;8.20;99.90;;;;;;5031030;28;20460;-35
2022/04/27 05:59:00;;;;;;;4.40;1.90;;;8.30;99.90;;;;;;5040703;28;20310;-34
2022/04/27 06:01:25;;;;;;;9.63;3.10;;;8.30;99.90;;;;;;5044992;28;20253;-34
2022/04/27 06:03:53;;;;;;;5.63;2.80;;;8.30;99.90;;;;;;5043057;28;20052;-34
2022/04/27 06:06:20;;;;;;;4.07;3.03;;;8.30;99.90;;;;;;5032790;28;20049;-35
2022/04/27 06:08:46;;;;;;;7.50;3.60;;;8.40;99.90;;;;;;5039196;28;20492;-34
2022/04/27 06:11:11;;;;;;;6.40;3.20;;;8.40;99.90;;;;;;5043576;28;20045;-34
2022/04/27 06:13:37;;;;;;;5.47;2.73;;;8.40;99.90;;;;;;5043104;28;20040;-34
2022/04/27 06:16:03;;;;;;;4.87;2.70;;;8.40;99.90;;;;;;5042238;28;20048;-34
2022/04/27 06:18:28;;;;;;;5.30;2.20;;;8.50;99.90;;;;;;5028428;28;20041;-34
2022/04/27 06:20:55;;;;;;;5.67;2.10;;;8.50;99.90;;;;;;5041745;28;20150;-34
2022/04/27 06:23:22;;;;;;;6.13;2.07;;;8.50;99.90;;;;;;5041540;28;20055;-35
2022/04/27 06:25:49;;;;;;;7.10;3.70;;;8.50;99.90;;;;;;5040995;28;20092;-35
2022/04/27 06:28:16;;;;;;;7.30;2.97;;;8.50;99.90;;;;;;5024885;28;20116;-34
2022/04/27 06:30:42;;;;;;;5.03;3.20;;;8.50;99.90;;;;;;5038462;28;20500;-35
2022/04/27 06:33:08;;;;;;;8.03;2.70;;;8.60;99.90;;;;;;5040562;28;20098;-35
2022/04/27 06:35:34;;;;;;;4.47;1.73;;;8.60;99.90;;;;;;5040642;28;20123;-35
2022/04/27 06:37:59;;;;;;;6.53;1.80;;;8.70;99.90;;;;;;5024778;28;20139;-35
2022/04/27 06:40:25;;;;;;;6.00;2.20;;;8.70;99.90;;;;;;5039587;28;20698;-35
2022/04/27 06:42:52;;;;;;;5.50;2.10;;;8.70;99.90;;;;;;5037954;28;20052;-35
2022/04/27 06:45:18;;;;;;;4.70;2.23;;;8.70;99.90;;;;;;5039494;28;20079;-35
2022/04/27 06:47:43;;;;;;;5.00;2.40;;;8.80;99.90;;;;;;5023347;28;20708;-35
2022/04/27 06:50:12;;;;;;;6.10;2.17;;;8.80;99.90;;;;;;5039041;28;20391;-34
2022/04/27 06:52:42;;;;;;;4.77;2.10;;;8.90;99.90;;;;;;5038311;28;20072;-34
2022/04/27 06:55:09;;;;;;;7.47;2.30;;;8.90;99.90;;;;;;5041562;28;20043;-35
2022/04/27 06:57:35;;;;;;;7.93;2.93;;;8.90;99.90;;;;;;5025561;28;20045;-35
2022/04/27 07:00:01;;;;;;;5.13;2.87;;;9.00;99.90;;;;;;5039887;28;20068;-34
2022/04/27 07:02:28;;;;;;;8.53;3.40;;;9.00;99.90;;;;;;5040574;28;20676;-34
2022/04/27 07:04:59;;;;;;;7.10;3.10;;;9.00;99.90;;;;;;5041395;28;20045;-34
2022/04/27 07:07:28;;;;;;;6.73;2.43;;;9.00;99.90;;;;;;5025000;28;20064;-34
2022/04/27 07:09:55;;;;;;;9.87;2.50;;;9.00;99.90;;;;;;5043365;28;20040;-35
2022/04/27 07:12:21;;;;;;;8.63;2.10;;;9.00;99.90;;;;;;5038619;28;20385;-39
2022/04/27 07:14:56;;;;;;;9.47;2.20;;;9.00;99.90;;;;;;5039484;28;20173;-34
2022/04/27 07:17:22;;;;;;;5.47;2.00;;;9.10;99.90;;;;;;5021576;28;20044;-35
2022/04/27 07:19:47;;;;;;;5.63;1.80;;;9.10;99.90;;;;;;5042710;28;20383;-34
2022/04/27 07:22:13;;;;;;;5.37;2.23;;;9.10;99.90;;;;;;5038868;28;20037;-35
2022/04/27 07:24:39;;;;;;;9.47;2.80;;;9.10;99.90;;;;;;5038215;28;20037;-35
2022/04/27 07:27:05;;;;;;;9.83;2.73;;;9.20;99.90;;;;;;5022474;28;20057;-35
2022/04/27 07:29:32;;;;;;;9.10;2.27;;;9.20;99.90;;;;;;5040464;28;20270;-35
2022/04/27 07:32:00;;;;;;;8.83;2.37;;;9.20;99.90;;;;;;5053875;28;20067;-35
2022/04/27 07:34:26;;;;;;;10.07;2.40;;;9.20;99.90;;;;;;5040078;28;20506;-35
2022/04/27 07:36:52;;;;;;;9.33;2.80;;;9.20;99.90;;;;;;5024471;28;21043;-35
2022/04/27 07:39:18;;;;;;;5.33;2.60;;;9.30;99.90;;;;;;5038262;28;20049;-34
2022/04/27 07:41:45;;;;;;;8.03;2.43;;;9.30;99.90;;;;;;5039630;28;20049;-34
2022/04/27 07:44:12;;;;;;;7.23;2.30;;;9.30;99.90;;;;;;5038656;28;21253;-35
2022/04/27 07:46:37;;;;;;;7.10;2.57;;;9.40;99.90;;;;;;5027515;28;20056;-35
2022/04/27 07:49:03;;;;;;;9.27;2.77;;;9.40;99.90;;;;;;5039136;28;20396;-35
2022/04/27 07:51:29;;;;;;;8.60;2.83;;;9.40;99.90;;;;;;5040431;28;20058;-35
2022/04/27 07:53:54;;;;;;;7.73;2.37;;;9.50;99.90;;;;;;5039706;28;20080;-34
2022/04/27 07:56:20;;;;;;;9.97;2.90;;;9.50;99.90;;;;;;5030582;28;20565;-35
2022/04/27 07:58:46;;;;;;;5.50;2.87;;;9.50;99.90;;;;;;5034748;28;20132;-35
2022/04/27 08:01:11;;;;;;;9.40;2.97;;;9.60;99.90;;;;;;5042671;28;20068;-35
2022/04/27 08:03:37;;;;;;;9.77;3.00;;;9.60;99.90;;;;;;5040629;28;20523;-35
2022/04/27 08:06:04;;;;;;;10.17;2.70;;;9.60;99.90;;;;;;5040270;28;20098;-35
2022/04/27 08:08:33;;;;;;;8.77;2.60;;;9.70;99.90;;;;;;5026000;28;20548;-35
2022/04/27 08:10:58;;;;;;;7.50;2.80;;;9.70;99.90;;;;;;5039487;28;20587;-34
2022/04/27 08:13:24;;;;;;;10.90;2.70;;;9.70;99.90;;;;;;5040271;28;20056;-35
2022/04/27 08:15:50;;;;;;;6.97;2.50;;;9.70;99.90;;;;;;5041796;28;20067;-35
2022/04/27 08:18:16;;;;;;;8.67;2.73;;;9.70;99.90;;;;;;5025003;28;20045;-35
2022/04/27 08:23:32;;;;;;;10.93;3.27;;;9.80;99.90;;;;;;5037619;28;20476;-35
2022/04/27 08:26:02;;;;;;;9.60;2.30;;;9.80;99.90;;;;;;5041509;28;20036;-35
2022/04/27 08:28:28;;;;;;;12.20;2.47;;;9.80;99.90;;;;;;5025747;28;20071;-35
2022/04/27 08:30:55;;;;;;;7.60;2.27;;;10.00;99.90;;;;;;5046368;28;20045;-35
2022/04/27 08:33:21;;;;;;;11.80;2.60;;;9.80;99.90;;;;;;5044542;28;20045;-35
2022/04/27 08:35:48;;;;;;;14.27;2.80;;;9.80;99.90;;;;;;5045181;28;20060;-35
2022/04/27 08:38:15;;;;;;;12.90;2.80;;;9.80;99.90;;;;;;5029054;28;20037;-35
2022/04/27 08:40:44;;;;;;;12.50;2.93;;;9.80;99.90;;;;;;5024504;28;20129;-34
2022/04/27 08:43:11;;;;;;;10.67;2.97;;;9.80;99.90;;;;;;5041268;28;20098;-35
2022/04/27 08:45:38;;;;;;;12.80;3.20;;;9.80;99.90;;;;;;5044400;28;20081;-35
2022/04/27 08:48:04;;;;;;;9.73;2.87;;;9.80;99.90;;;;;;5028395;28;20078;-35
2022/04/27 08:50:30;;;;;;;15.93;3.13;;;9.80;99.90;;;;;;5045870;28;20048;-35
2022/04/27 08:52:56;;;;;;;13.00;3.27;;;9.90;99.90;;;;;;5043399;28;20045;-35
2022/04/27 08:55:23;;;;;;;18.77;3.00;;;9.90;99.90;;;;;;5045920;28;20102;-35
2022/04/27 08:57:49;;;;;;;13.60;3.10;;;9.90;99.90;;;;;;5029037;28;20055;-34
2022/04/27 09:00:17;;;;;;;13.70;2.97;;;9.90;99.90;;;;;;5046948;28;20041;-35
2022/04/27 09:02:43;;;;;;;16.17;3.63;;;9.90;99.90;;;;;;5043985;28;20537;-35
2022/04/27 09:05:13;;;;;;;11.90;2.60;;;10.00;99.90;;;;;;5044787;28;20136;-35
2022/04/27 09:07:40;;;;;;;12.90;2.97;;;9.90;99.90;;;;;;5027435;28;20125;-35
2022/04/27 09:10:25;;;;;;;13.60;2.80;;;9.90;99.90;;;;;;5046415;28;20048;-35
2022/04/27 09:12:56;;;;;;;9.57;2.60;;;9.90;99.90;;;;;;5045177;28;20187;-35
2022/04/27 09:15:24;;;;;;;10.05;2.58;;;9.80;99.90;;;;;;5044966;28;20045;-35
2022/04/27 09:20:52;;;;;;;13.13;2.67;;;9.80;99.90;;;;;;5045439;28;20528;-35
2022/04/27 09:23:39;;;;;;;14.73;2.87;;;9.90;99.90;;;;;;5041917;28;20049;-35
2022/04/27 09:26:17;;;;;;;13.27;2.90;;;10.00;99.90;;;;;;5043202;28;20051;-35
2022/04/27 09:28:48;;;;;;;10.47;2.40;;;9.90;99.90;;;;;;5039681;28;20056;-35
2022/04/27 09:31:31;;;;;;;14.93;2.90;;;9.90;99.90;;;;;;5044712;28;20052;-35
2022/04/27 09:34:01;;;;;;;12.63;2.87;;;10.00;99.90;;;;;;5044015;28;20500;-35
2022/04/27 09:36:28;;;;;;;15.20;3.20;;;10.00;99.90;;;;;;5033077;28;20504;-35
2022/04/27 09:38:57;;;;;;;14.57;3.47;;;10.00;99.90;;;;;;5041584;28;20045;-35
2022/04/27 09:41:41;;;;;;;12.57;3.60;;;10.00;99.90;;;;;;5044415;28;20037;-35
2022/04/27 09:44:06;;;;;;;10.77;3.00;;;10.00;99.90;;;;;;5040763;28;20128;-35
2022/04/27 09:46:40;;;;;;;13.50;2.90;;;10.00;99.90;;;;;;5031687;28;20592;-35
2022/04/27 09:49:07;;;;;;;11.37;2.93;;;10.10;99.90;;;;;;5040381;28;20072;-35
2022/04/27 09:51:34;;;;;;;13.43;2.50;;;10.10;99.90;;;;;;5060415;28;20178;-35
2022/04/27 09:54:01;;;;;;;14.80;2.97;;;10.10;99.90;;;;;;5041738;28;20049;-35
2022/04/27 09:56:35;;;;;;;9.63;2.80;;;10.00;99.90;;;;;;5033177;28;20587;-35
2022/04/27 09:59:04;;;;;;;10.53;2.80;;;10.20;99.90;;;;;;5040499;28;20041;-35
2022/04/27 10:01:36;;;;;;;12.73;3.00;;;10.20;99.90;;;;;;5045366;28;20388;-35
2022/04/27 10:04:03;;;;;;;;;;;10.20;99.90;;;;;;5042745;28;20040;-35
2022/04/27 10:06:30;;;;;;;13.00;3.00;;;10.30;99.90;;;;;;5030784;28;20453;-36
2022/04/27 10:08:59;;;;;;;11.23;2.50;;;10.20;99.90;;;;;;5041051;28;20064;-35
2022/04/27 10:11:29;;;;;;;13.87;2.80;;;10.30;99.90;;;;;;5044887;28;20068;-35
2022/04/27 10:13:55;;;;;;;8.63;2.53;;;10.30;99.90;;;;;;5043055;28;20040;-35
2022/04/27 10:16:25;;;;;;;12.53;3.10;;;10.30;99.90;;;;;;5033678;28;20102;-35
2022/04/27 10:18:52;;;;;;;11.93;2.80;;;10.30;99.90;;;;;;5038587;28;20045;-35
2022/04/27 10:21:57;;;;;;;13.87;2.90;;;10.40;99.90;;;;;;5043946;28;20098;-35
2022/04/27 10:24:34;;;;;;;11.93;2.63;;;10.40;99.90;;;;;;5041049;28;20123;-35
2022/04/27 10:27:22;;;;;;;13.77;3.20;;;10.50;99.90;;;;;;5025767;28;20060;-35
2022/04/27 10:30:03;;;;;;;9.90;2.37;;;10.50;99.90;;;;;;5041162;28;20040;-35
2022/04/27 10:32:45;;;;;;;13.60;2.72;;;10.50;99.90;;;;;;5040979;28;20044;-35
2022/04/27 10:35:27;;;;;;;13.90;2.80;;;10.50;99.90;;;;;;5043516;28;20446;-35
2022/04/27 10:37:58;;;;;;;12.23;3.28;;;10.50;99.90;;;;;;5028117;28;20112;-35
2022/04/27 10:40:29;;;;;;;11.77;2.90;;;10.50;99.90;;;;;;5041478;28;20562;-35
2022/04/27 10:43:10;;;;;;;10.50;2.90;;;10.50;99.90;;;;;;5040930;28;20209;-35
2022/04/27 10:45:43;;;;;;;11.32;2.30;;;10.60;99.90;;;;;;5057912;28;20342;-35
2022/04/27 10:48:22;;;;;;;12.90;2.80;;;10.60;99.90;;;;;;5026309;28;20052;-35
2022/04/27 10:51:02;;;;;;;11.57;2.50;;;10.60;99.90;;;;;;5042906;28;20048;-35
2022/04/27 10:53:38;;;;;;;11.77;2.47;;;10.70;99.90;;;;;;5039140;28;20055;-35
2022/04/27 10:56:19;;;;;;;7.72;2.45;;;10.70;99.90;;;;;;5040513;28;20033;-35
2022/04/27 10:58:45;;;;;;;;;;;10.80;99.90;;;;;;5034057;28;20126;-35
2022/04/27 11:01:10;;;;;;;10.10;2.95;;;10.80;99.90;;;;;;5039104;28;19978;-35
2022/04/27 11:03:38;;;;;;;14.00;2.70;;;10.90;99.90;;;;;;5039035;28;20056;-35
2022/04/27 11:06:12;;;;;;;11.55;3.05;;;10.90;99.90;;;;;;5039975;28;20056;-35
2022/04/27 11:08:57;;;;;;;8.02;2.70;;;11.10;99.90;;;;;;5033769;28;20160;-35
2022/04/27 11:11:25;;;;;;;12.85;2.30;;;11.10;99.90;;;;;;5040764;28;20036;-35
2022/04/27 11:13:51;;;;;;;12.25;2.63;;;11.10;99.90;;;;;;5039115;28;20045;-35
2022/04/27 11:16:18;;;;;;;13.55;2.70;;;11.10;99.90;;;;;;5028245;28;20565;-36
2022/04/27 11:18:59;;;;;;;13.57;3.42;;;11.10;99.90;;;;;;5033962;28;20098;-35
2022/04/27 11:21:30;;;;;;;11.90;3.22;;;11.20;99.90;;;;;;5039435;28;20244;-35
2022/04/27 11:23:59;;;;;;;11.52;3.30;;;11.30;99.90;;;;;;5037225;28;20048;-35
2022/04/27 11:26:25;;;;;;;10.25;2.90;;;11.30;99.90;;;;;;5028513;28;20580;-35
2022/04/27 11:28:53;;;;;;;13.35;3.10;;;11.40;99.90;;;;;;5035909;28;20048;-35
2022/04/27 11:31:19;;;;;;;13.00;2.65;;;11.50;99.90;;;;;;5041341;28;20071;-35
2022/04/27 11:33:45;;;;;;;10.82;2.70;;;11.60;99.90;;;;;;5042541;28;20057;-35
2022/04/27 11:36:22;;;;;;;15.05;3.00;;;11.60;99.90;;;;;;5034027;28;20509;-35
2022/04/27 11:38:47;;;;;;;12.85;2.92;;;11.70;99.90;;;;;;5041251;28;20084;-35
2022/04/27 11:41:14;;;;;;;13.00;2.47;;;11.80;99.90;;;;;;5043430;28;20075;-35
2022/04/27 11:43:40;;;;;;;7.65;2.38;;;11.90;99.90;;;;;;5040379;28;20496;-35
2022/04/27 11:46:08;;;;;;;8.98;2.38;;;11.90;99.90;;;;;;5037748;28;20041;-36
2022/04/27 11:48:35;;;;;;;10.48;2.50;;;12.10;99.90;;;;;;5033517;28;20292;-35
2022/04/27 11:51:02;;;;;;;12.48;2.25;;;12.10;99.90;;;;;;5043147;28;20533;-35
2022/04/27 11:53:28;;;;;;;8.82;2.85;;;12.20;99.90;;;;;;5040110;28;20047;-35
2022/04/27 11:55:55;;;;;;;9.15;2.58;;;12.20;99.90;;;;;;5041328;28;20385;-35
2022/04/27 11:58:22;;;;;;;8.85;2.75;;;12.20;99.90;;;;;;5025375;28;20041;-35
2022/04/27 12:00:49;;;;;;;11.13;2.50;;;12.20;99.90;;;;;;5041315;28;20053;-35
2022/04/27 12:03:15;;;;;;;9.82;2.45;;;12.20;99.90;;;;;;5042262;28;20343;-35
2022/04/27 12:05:40;;;;;;;9.65;2.30;;;12.20;99.90;;;;;;5043276;28;20569;-35
2022/04/27 12:08:09;;;;;;;10.48;2.75;;;12.20;99.90;;;;;;5030234;28;20048;-35
2022/04/27 12:10:42;;;;;;;8.55;2.55;;;12.30;99.90;;;;;;5044965;28;20144;-35
2022/04/27 12:13:12;;;;;;;11.15;2.17;;;12.30;99.90;;;;;;5045261;28;20373;-35
2022/04/27 12:15:39;;;;;;;11.63;2.80;;;12.20;99.90;;;;;;5044968;28;20131;-35
2022/04/27 12:18:06;;;;;;;8.50;2.50;;;12.20;99.90;;;;;;5028092;28;20500;-35
2022/04/27 12:20:41;;;;;;;13.88;2.42;;;12.20;99.90;;;;;;5045643;28;20041;-35
2022/04/27 12:23:11;;;;;;;5.60;2.20;;;12.20;99.90;;;;;;5041183;28;20144;-35
2022/04/27 12:25:44;;;;;;;11.45;2.30;;;12.20;99.90;;;;;;5043825;28;20097;-35
2022/04/27 12:28:16;;;;;;;9.13;2.53;;;12.20;99.90;;;;;;5027680;28;20059;-35
2022/04/27 12:30:50;;;;;;;8.88;2.20;;;12.10;99.90;;;;;;5044287;28;20118;-35
2022/04/27 12:33:27;;;;;;;10.00;2.22;;;12.10;99.90;;;;;;5044479;28;20360;-35
2022/04/27 12:38:54;;;;;;;12.60;2.67;;;12.20;99.90;;;;;;5038629;28;20052;-35
2022/04/27 12:41:44;;;;;;;10.95;2.17;;;12.30;99.90;;;;;;5046335;28;20048;-35
2022/04/27 12:44:11;;;;;;;9.65;2.90;;;12.30;99.90;;;;;;5042638;28;20646;-36
2022/04/27 12:46:38;;;;;;;12.52;2.72;;;12.30;99.90;;;;;;5028744;28;20497;-35
2022/04/27 12:49:07;;;;;;;16.42;2.38;;;12.30;99.90;;;;;;5041691;28;20049;-35
2022/04/27 12:51:37;;;;;;;8.82;1.98;;;12.30;99.90;;;;;;5045720;28;20052;-35
2022/04/27 12:54:03;;;;;;;12.32;2.63;;;12.40;99.90;;;;;;5042172;28;20182;-35
2022/04/27 12:56:34;;;;;;;12.05;2.20;;;12.40;99.90;;;;;;5031601;28;20588;-35
2022/04/27 12:59:13;;;;;;;12.05;2.63;;;12.30;99.90;;;;;;5043791;28;20322;-36
2022/04/27 13:01:39;;;;;;;8.00;2.83;;;12.30;99.90;;;;;;5042847;28;20052;-35
2022/04/27 13:04:06;;;;;;;12.05;2.42;;;12.30;99.90;;;;;;5042986;28;20110;-35
2022/04/27 13:06:32;;;;;;;11.07;2.47;;;12.30;99.90;;;;;;5030021;28;20041;-36
2022/04/27 13:11:57;;;;;;;12.50;2.65;;;12.30;99.90;;;;;;5044871;28;20049;-35
2022/04/27 13:14:27;;;;;;;10.50;2.78;;;12.30;99.90;;;;;;5042562;28;20041;-35
2022/04/27 13:16:53;;;;;;;11.25;2.88;;;12.30;99.90;;;;;;5028921;28;20076;-35
2022/04/27 13:19:19;;;;;;;11.55;2.47;;;12.30;99.90;;;;;;5044926;28;20045;-35